sensor_id;sensor_type;location;lat;lon;timestamp;P1;durP1;ratioP1;P2;durP2;ratioP2
69912;SDS011;57198;52.082;5.108;2024-02-15T00:00:18;13.45;;;5.38;;
69912;SDS011;57198;52.082;5.108;2024-02-15T00:02:45;10.60;;;5.20;;
69912;SDS011;57198;52.082;5.108;2024-02-15T00:05:13;12.43;;;5.30;;
69912;SDS011;57198;52.082;5.108;2024-02-15T00:07:42;10.23;;;5.13;;
69912;SDS011;57198;52.082;5.108;2024-02-15T00:10:10;10.70;;;5.32;;
69912;SDS011;57198;52.082;5.108;2024-02-15T00:12:37;13.70;;;4.75;;
69912;SDS011;57198;52.082;5.108;2024-02-15T00:15:05;13.50;;;5.28;;
69912;SDS011;57198;52.082;5.108;2024-02-15T00:17:33;17.88;;;5.80;;
69912;SDS011;57198;52.082;5.108;2024-02-15T00:20:03;9.80;;;4.77;;
69912;SDS011;57198;52.082;5.108;2024-02-15T00:22:36;10.05;;;4.60;;
69912;SDS011;57198;52.082;5.108;2024-02-15T00:25:04;12.45;;;4.53;;
69912;SDS011;57198;52.082;5.108;2024-02-15T00:27:32;12.60;;;5.07;;
69912;SDS011;57198;52.082;5.108;2024-02-15T00:30:01;10.68;;;5.35;;
69912;SDS011;57198;52.082;5.108;2024-02-15T00:32:29;11.43;;;4.20;;
69912;SDS011;57198;52.082;5.108;2024-02-15T00:34:56;9.10;;;5.20;;
69912;SDS011;57198;52.082;5.108;2024-02-15T00:37:24;11.57;;;5.72;;
69912;SDS011;57198;52.082;5.108;2024-02-15T00:39:52;9.82;;;4.53;;
69912;SDS011;57198;52.082;5.108;2024-02-15T00:42:19;8.18;;;5.05;;
69912;SDS011;57198;52.082;5.108;2024-02-15T00:44:46;13.07;;;5.30;;
69912;SDS011;57198;52.082;5.108;2024-02-15T00:47:14;8.23;;;4.70;;
69912;SDS011;57198;52.082;5.108;2024-02-15T00:49:42;13.57;;;5.10;;
69912;SDS011;57198;52.082;5.108;2024-02-15T00:52:10;10.23;;;4.90;;
69912;SDS011;57198;52.082;5.108;2024-02-15T00:54:38;7.63;;;5.20;;
69912;SDS011;57198;52.082;5.108;2024-02-15T00:57:05;9.93;;;4.67;;
69912;SDS011;57198;52.082;5.108;2024-02-15T00:59:33;9.77;;;5.25;;
69912;SDS011;57198;52.082;5.108;2024-02-15T01:02:02;10.32;;;5.45;;
69912;SDS011;57198;52.082;5.108;2024-02-15T01:04:29;9.55;;;5.53;;
69912;SDS011;57198;52.082;5.108;2024-02-15T01:06:57;11.70;;;5.10;;
69912;SDS011;57198;52.082;5.108;2024-02-15T01:09:24;11.77;;;5.63;;
69912;SDS011;57198;52.082;5.108;2024-02-15T01:11:52;9.15;;;5.03;;
69912;SDS011;57198;52.082;5.108;2024-02-15T01:14:19;13.05;;;6.00;;
69912;SDS011;57198;52.082;5.108;2024-02-15T01:16:46;14.57;;;6.43;;
69912;SDS011;57198;52.082;5.108;2024-02-15T01:19:14;11.43;;;6.70;;
69912;SDS011;57198;52.082;5.108;2024-02-15T01:21:42;9.87;;;6.03;;
69912;SDS011;57198;52.082;5.108;2024-02-15T01:24:10;12.55;;;6.80;;
69912;SDS011;57198;52.082;5.108;2024-02-15T01:26:38;17.75;;;7.15;;
69912;SDS011;57198;52.082;5.108;2024-02-15T01:29:05;10.85;;;7.07;;
69912;SDS011;57198;52.082;5.108;2024-02-15T01:31:33;11.40;;;7.63;;
69912;SDS011;57198;52.082;5.108;2024-02-15T01:34:00;14.47;;;7.30;;
69912;SDS011;57198;52.082;5.108;2024-02-15T01:36:28;14.38;;;7.05;;
69912;SDS011;57198;52.082;5.108;2024-02-15T01:38:55;9.27;;;7.10;;
69912;SDS011;57198;52.082;5.108;2024-02-15T01:41:22;13.23;;;8.55;;
69912;SDS011;57198;52.082;5.108;2024-02-15T01:43:50;14.02;;;8.13;;
69912;SDS011;57198;52.082;5.108;2024-02-15T01:46:17;13.57;;;7.70;;
69912;SDS011;57198;52.082;5.108;2024-02-15T01:48:46;15.15;;;7.75;;
69912;SDS011;57198;52.082;5.108;2024-02-15T01:51:14;16.23;;;8.30;;
69912;SDS011;57198;52.082;5.108;2024-02-15T01:53:43;15.88;;;8.63;;
69912;SDS011;57198;52.082;5.108;2024-02-15T01:56:11;17.60;;;9.50;;
69912;SDS011;57198;52.082;5.108;2024-02-15T01:58:39;13.07;;;9.07;;
69912;SDS011;57198;52.082;5.108;2024-02-15T02:01:07;16.48;;;8.95;;
69912;SDS011;57198;52.082;5.108;2024-02-15T02:03:35;16.98;;;8.52;;
69912;SDS011;57198;52.082;5.108;2024-02-15T02:06:03;15.13;;;8.75;;
69912;SDS011;57198;52.082;5.108;2024-02-15T02:08:31;13.77;;;9.48;;
69912;SDS011;57198;52.082;5.108;2024-02-15T02:10:58;17.23;;;10.80;;
69912;SDS011;57198;52.082;5.108;2024-02-15T02:13:28;13.25;;;9.05;;
69912;SDS011;57198;52.082;5.108;2024-02-15T02:15:57;17.95;;;10.57;;
69912;SDS011;57198;52.082;5.108;2024-02-15T02:18:26;19.67;;;10.50;;
69912;SDS011;57198;52.082;5.108;2024-02-15T02:20:53;16.50;;;9.63;;
69912;SDS011;57198;52.082;5.108;2024-02-15T02:23:21;12.50;;;8.53;;
69912;SDS011;57198;52.082;5.108;2024-02-15T02:25:52;16.45;;;9.85;;
69912;SDS011;57198;52.082;5.108;2024-02-15T02:28:21;15.73;;;9.07;;
69912;SDS011;57198;52.082;5.108;2024-02-15T02:30:48;21.77;;;9.60;;
69912;SDS011;57198;52.082;5.108;2024-02-15T02:33:16;14.27;;;9.48;;
69912;SDS011;57198;52.082;5.108;2024-02-15T02:35:47;15.77;;;10.10;;
69912;SDS011;57198;52.082;5.108;2024-02-15T02:38:15;15.75;;;9.45;;
69912;SDS011;57198;52.082;5.108;2024-02-15T02:40:42;18.58;;;10.38;;
69912;SDS011;57198;52.082;5.108;2024-02-15T02:43:10;18.77;;;9.02;;
69912;SDS011;57198;52.082;5.108;2024-02-15T02:45:37;17.75;;;9.68;;
69912;SDS011;57198;52.082;5.108;2024-02-15T02:48:05;17.37;;;9.17;;
69912;SDS011;57198;52.082;5.108;2024-02-15T02:50:33;11.57;;;8.60;;
69912;SDS011;57198;52.082;5.108;2024-02-15T02:53:01;17.13;;;8.38;;
69912;SDS011;57198;52.082;5.108;2024-02-15T02:55:28;16.45;;;8.73;;
69912;SDS011;57198;52.082;5.108;2024-02-15T02:57:57;13.05;;;8.32;;
69912;SDS011;57198;52.082;5.108;2024-02-15T03:00:24;13.33;;;7.50;;
69912;SDS011;57198;52.082;5.108;2024-02-15T03:02:54;13.13;;;7.82;;
69912;SDS011;57198;52.082;5.108;2024-02-15T03:05:23;12.98;;;7.90;;
69912;SDS011;57198;52.082;5.108;2024-02-15T03:07:51;15.82;;;8.23;;
69912;SDS011;57198;52.082;5.108;2024-02-15T03:10:18;13.85;;;7.22;;
69912;SDS011;57198;52.082;5.108;2024-02-15T03:12:46;13.30;;;7.03;;
69912;SDS011;57198;52.082;5.108;2024-02-15T03:15:15;11.48;;;6.53;;
69912;SDS011;57198;52.082;5.108;2024-02-15T03:17:45;12.25;;;7.15;;
69912;SDS011;57198;52.082;5.108;2024-02-15T03:20:12;10.90;;;5.93;;
69912;SDS011;57198;52.082;5.108;2024-02-15T03:22:54;14.60;;;6.97;;
69912;SDS011;57198;52.082;5.108;2024-02-15T03:25:22;14.63;;;5.90;;
69912;SDS011;57198;52.082;5.108;2024-02-15T03:27:51;11.38;;;6.05;;
69912;SDS011;57198;52.082;5.108;2024-02-15T03:30:19;15.38;;;6.45;;
69912;SDS011;57198;52.082;5.108;2024-02-15T03:32:47;17.63;;;6.07;;
69912;SDS011;57198;52.082;5.108;2024-02-15T03:35:15;15.15;;;6.78;;
69912;SDS011;57198;52.082;5.108;2024-02-15T03:37:42;14.27;;;5.63;;
69912;SDS011;57198;52.082;5.108;2024-02-15T03:40:10;14.80;;;6.03;;
69912;SDS011;57198;52.082;5.108;2024-02-15T03:42:38;12.60;;;6.57;;
69912;SDS011;57198;52.082;5.108;2024-02-15T03:45:05;11.85;;;5.30;;
69912;SDS011;57198;52.082;5.108;2024-02-15T03:47:33;15.93;;;6.63;;
69912;SDS011;57198;52.082;5.108;2024-02-15T03:50:02;13.27;;;6.13;;
69912;SDS011;57198;52.082;5.108;2024-02-15T03:52:31;16.77;;;6.60;;
69912;SDS011;57198;52.082;5.108;2024-02-15T03:54:58;12.65;;;5.82;;
69912;SDS011;57198;52.082;5.108;2024-02-15T03:57:26;13.95;;;6.50;;
69912;SDS011;57198;52.082;5.108;2024-02-15T03:59:54;14.80;;;6.28;;
69912;SDS011;57198;52.082;5.108;2024-02-15T04:02:24;10.93;;;4.90;;
69912;SDS011;57198;52.082;5.108;2024-02-15T04:04:56;9.63;;;5.38;;
69912;SDS011;57198;52.082;5.108;2024-02-15T04:07:24;10.90;;;5.78;;
69912;SDS011;57198;52.082;5.108;2024-02-15T04:09:54;12.85;;;6.47;;
69912;SDS011;57198;52.082;5.108;2024-02-15T04:12:21;12.25;;;6.68;;
69912;SDS011;57198;52.082;5.108;2024-02-15T04:14:48;10.97;;;5.83;;
69912;SDS011;57198;52.082;5.108;2024-02-15T04:17:17;10.98;;;5.40;;
69912;SDS011;57198;52.082;5.108;2024-02-15T04:19:48;14.63;;;5.68;;
69912;SDS011;57198;52.082;5.108;2024-02-15T04:22:20;17.20;;;5.88;;
69912;SDS011;57198;52.082;5.108;2024-02-15T04:24:47;9.27;;;5.95;;
69912;SDS011;57198;52.082;5.108;2024-02-15T04:27:16;16.07;;;6.10;;
69912;SDS011;57198;52.082;5.108;2024-02-15T04:29:47;10.88;;;5.15;;
69912;SDS011;57198;52.082;5.108;2024-02-15T04:32:16;13.48;;;5.90;;
69912;SDS011;57198;52.082;5.108;2024-02-15T04:34:45;8.27;;;5.60;;
69912;SDS011;57198;52.082;5.108;2024-02-15T04:37:13;15.80;;;6.00;;
69912;SDS011;57198;52.082;5.108;2024-02-15T04:39:43;15.27;;;6.67;;
69912;SDS011;57198;52.082;5.108;2024-02-15T04:42:10;13.93;;;6.25;;
69912;SDS011;57198;52.082;5.108;2024-02-15T04:44:38;15.77;;;6.03;;
69912;SDS011;57198;52.082;5.108;2024-02-15T04:47:06;15.63;;;6.68;;
69912;SDS011;57198;52.082;5.108;2024-02-15T04:49:34;16.42;;;7.07;;
69912;SDS011;57198;52.082;5.108;2024-02-15T04:52:04;21.43;;;6.77;;
69912;SDS011;57198;52.082;5.108;2024-02-15T04:54:33;14.57;;;6.43;;
69912;SDS011;57198;52.082;5.108;2024-02-15T04:57:00;11.63;;;7.18;;
69912;SDS011;57198;52.082;5.108;2024-02-15T04:59:28;15.43;;;6.90;;
69912;SDS011;57198;52.082;5.108;2024-02-15T05:01:55;14.40;;;6.95;;
69912;SDS011;57198;52.082;5.108;2024-02-15T05:04:23;13.73;;;7.00;;
69912;SDS011;57198;52.082;5.108;2024-02-15T05:06:51;13.70;;;6.68;;
69912;SDS011;57198;52.082;5.108;2024-02-15T05:09:19;17.42;;;7.47;;
69912;SDS011;57198;52.082;5.108;2024-02-15T05:11:49;14.52;;;7.57;;
69912;SDS011;57198;52.082;5.108;2024-02-15T05:14:16;13.20;;;7.60;;
69912;SDS011;57198;52.082;5.108;2024-02-15T05:16:46;17.43;;;8.17;;
69912;SDS011;57198;52.082;5.108;2024-02-15T05:19:17;10.13;;;7.03;;
69912;SDS011;57198;52.082;5.108;2024-02-15T05:21:45;14.55;;;8.10;;
69912;SDS011;57198;52.082;5.108;2024-02-15T05:24:13;14.98;;;7.22;;
69912;SDS011;57198;52.082;5.108;2024-02-15T05:26:41;12.40;;;7.50;;
69912;SDS011;57198;52.082;5.108;2024-02-15T05:29:10;17.10;;;8.63;;
69912;SDS011;57198;52.082;5.108;2024-02-15T05:31:38;15.88;;;8.18;;
69912;SDS011;57198;52.082;5.108;2024-02-15T05:34:07;15.93;;;8.88;;
69912;SDS011;57198;52.082;5.108;2024-02-15T05:36:35;13.98;;;7.95;;
69912;SDS011;57198;52.082;5.108;2024-02-15T05:39:03;16.60;;;8.73;;
69912;SDS011;57198;52.082;5.108;2024-02-15T05:41:31;16.10;;;7.80;;
69912;SDS011;57198;52.082;5.108;2024-02-15T05:44:01;15.98;;;8.48;;
69912;SDS011;57198;52.082;5.108;2024-02-15T05:46:33;14.82;;;8.75;;
69912;SDS011;57198;52.082;5.108;2024-02-15T05:49:04;14.85;;;8.23;;
69912;SDS011;57198;52.082;5.108;2024-02-15T05:51:32;14.80;;;7.70;;
69912;SDS011;57198;52.082;5.108;2024-02-15T05:54:00;14.47;;;8.03;;
69912;SDS011;57198;52.082;5.108;2024-02-15T05:56:29;15.50;;;8.10;;
69912;SDS011;57198;52.082;5.108;2024-02-15T05:58:56;14.18;;;8.63;;
69912;SDS011;57198;52.082;5.108;2024-02-15T06:01:24;12.68;;;8.60;;
69912;SDS011;57198;52.082;5.108;2024-02-15T06:03:52;15.75;;;7.88;;
69912;SDS011;57198;52.082;5.108;2024-02-15T06:06:22;12.63;;;7.63;;
69912;SDS011;57198;52.082;5.108;2024-02-15T06:08:50;13.35;;;8.20;;
69912;SDS011;57198;52.082;5.108;2024-02-15T06:11:19;15.07;;;8.98;;
69912;SDS011;57198;52.082;5.108;2024-02-15T06:13:47;13.35;;;9.07;;
69912;SDS011;57198;52.082;5.108;2024-02-15T06:16:15;15.10;;;8.93;;
69912;SDS011;57198;52.082;5.108;2024-02-15T06:18:42;14.20;;;8.57;;
69912;SDS011;57198;52.082;5.108;2024-02-15T06:21:10;11.13;;;8.35;;
69912;SDS011;57198;52.082;5.108;2024-02-15T06:23:38;16.20;;;9.63;;
69912;SDS011;57198;52.082;5.108;2024-02-15T06:26:05;13.75;;;8.70;;
69912;SDS011;57198;52.082;5.108;2024-02-15T06:28:32;12.27;;;9.07;;
69912;SDS011;57198;52.082;5.108;2024-02-15T06:31:18;15.30;;;9.03;;
69912;SDS011;57198;52.082;5.108;2024-02-15T06:34:04;17.10;;;9.60;;
69912;SDS011;57198;52.082;5.108;2024-02-15T06:36:52;13.00;;;8.93;;
69912;SDS011;57198;52.082;5.108;2024-02-15T06:39:38;14.52;;;8.85;;
69912;SDS011;57198;52.082;5.108;2024-02-15T06:42:11;13.25;;;8.13;;
69912;SDS011;57198;52.082;5.108;2024-02-15T06:44:42;12.33;;;7.87;;
69912;SDS011;57198;52.082;5.108;2024-02-15T06:47:11;15.10;;;8.35;;
69912;SDS011;57198;52.082;5.108;2024-02-15T06:49:39;12.90;;;8.85;;
69912;SDS011;57198;52.082;5.108;2024-02-15T06:52:07;12.50;;;8.10;;
69912;SDS011;57198;52.082;5.108;2024-02-15T06:54:35;12.35;;;8.50;;
69912;SDS011;57198;52.082;5.108;2024-02-15T06:57:03;11.43;;;6.87;;
69912;SDS011;57198;52.082;5.108;2024-02-15T06:59:31;9.82;;;6.93;;
69912;SDS011;57198;52.082;5.108;2024-02-15T07:02:02;9.13;;;6.65;;
69912;SDS011;57198;52.082;5.108;2024-02-15T07:04:31;9.50;;;7.18;;
69912;SDS011;57198;52.082;5.108;2024-02-15T07:06:59;10.00;;;8.07;;
69912;SDS011;57198;52.082;5.108;2024-02-15T07:09:28;9.37;;;6.77;;
69912;SDS011;57198;52.082;5.108;2024-02-15T07:11:56;8.30;;;6.75;;
69912;SDS011;57198;52.082;5.108;2024-02-15T07:14:25;10.10;;;7.22;;
69912;SDS011;57198;52.082;5.108;2024-02-15T07:16:54;5.95;;;5.30;;
69912;SDS011;57198;52.082;5.108;2024-02-15T07:19:25;11.27;;;7.70;;
69912;SDS011;57198;52.082;5.108;2024-02-15T07:21:59;7.10;;;5.90;;
69912;SDS011;57198;52.082;5.108;2024-02-15T07:24:27;8.60;;;6.80;;
69912;SDS011;57198;52.082;5.108;2024-02-15T07:26:55;9.45;;;7.05;;
69912;SDS011;57198;52.082;5.108;2024-02-15T07:29:23;6.32;;;5.72;;
69912;SDS011;57198;52.082;5.108;2024-02-15T07:31:51;10.85;;;6.85;;
69912;SDS011;57198;52.082;5.108;2024-02-15T07:34:20;7.37;;;5.60;;
69912;SDS011;57198;52.082;5.108;2024-02-15T07:36:48;8.10;;;5.32;;
69912;SDS011;57198;52.082;5.108;2024-02-15T07:39:15;7.97;;;6.28;;
69912;SDS011;57198;52.082;5.108;2024-02-15T07:41:54;8.30;;;6.60;;
69912;SDS011;57198;52.082;5.108;2024-02-15T07:44:21;6.93;;;5.55;;
69912;SDS011;57198;52.082;5.108;2024-02-15T07:46:49;7.23;;;6.10;;
69912;SDS011;57198;52.082;5.108;2024-02-15T07:49:17;8.02;;;5.70;;
69912;SDS011;57198;52.082;5.108;2024-02-15T07:51:45;7.05;;;5.57;;
69912;SDS011;57198;52.082;5.108;2024-02-15T07:54:19;6.28;;;4.68;;
69912;SDS011;57198;52.082;5.108;2024-02-15T07:56:49;9.10;;;6.10;;
69912;SDS011;57198;52.082;5.108;2024-02-15T07:59:18;6.20;;;5.60;;
69912;SDS011;57198;52.082;5.108;2024-02-15T08:01:45;8.07;;;5.95;;
69912;SDS011;57198;52.082;5.108;2024-02-15T08:04:14;7.55;;;5.72;;
69912;SDS011;57198;52.082;5.108;2024-02-15T08:06:43;8.02;;;5.68;;
69912;SDS011;57198;52.082;5.108;2024-02-15T08:09:11;7.93;;;5.68;;
69912;SDS011;57198;52.082;5.108;2024-02-15T08:11:44;9.60;;;6.37;;
69912;SDS011;57198;52.082;5.108;2024-02-15T08:14:12;8.20;;;5.93;;
69912;SDS011;57198;52.082;5.108;2024-02-15T08:16:40;14.38;;;8.50;;
69912;SDS011;57198;52.082;5.108;2024-02-15T08:19:08;9.52;;;6.28;;
69912;SDS011;57198;52.082;5.108;2024-02-15T08:21:36;12.68;;;6.07;;
69912;SDS011;57198;52.082;5.108;2024-02-15T08:24:05;9.37;;;6.30;;
69912;SDS011;57198;52.082;5.108;2024-02-15T08:26:33;10.10;;;6.40;;
69912;SDS011;57198;52.082;5.108;2024-02-15T08:29:02;7.70;;;5.88;;
69912;SDS011;57198;52.082;5.108;2024-02-15T08:31:29;7.88;;;5.35;;
69912;SDS011;57198;52.082;5.108;2024-02-15T08:33:58;7.25;;;5.13;;
69912;SDS011;57198;52.082;5.108;2024-02-15T08:36:27;5.00;;;3.80;;
69912;SDS011;57198;52.082;5.108;2024-02-15T08:38:54;5.65;;;4.30;;
69912;SDS011;57198;52.082;5.108;2024-02-15T08:41:22;5.53;;;4.20;;
69912;SDS011;57198;52.082;5.108;2024-02-15T08:43:53;5.28;;;4.72;;
69912;SDS011;57198;52.082;5.108;2024-02-15T08:46:23;5.28;;;3.72;;
69912;SDS011;57198;52.082;5.108;2024-02-15T08:48:53;5.60;;;4.23;;
69912;SDS011;57198;52.082;5.108;2024-02-15T08:51:21;5.82;;;4.30;;
69912;SDS011;57198;52.082;5.108;2024-02-15T08:53:50;5.68;;;3.92;;
69912;SDS011;57198;52.082;5.108;2024-02-15T08:56:18;5.70;;;3.42;;
69912;SDS011;57198;52.082;5.108;2024-02-15T08:58:45;6.18;;;3.58;;
69912;SDS011;57198;52.082;5.108;2024-02-15T09:01:14;10.00;;;4.00;;
69912;SDS011;57198;52.082;5.108;2024-02-15T09:03:42;5.65;;;3.70;;
69912;SDS011;57198;52.082;5.108;2024-02-15T09:06:12;7.90;;;4.43;;
69912;SDS011;57198;52.082;5.108;2024-02-15T09:08:40;6.10;;;4.18;;
69912;SDS011;57198;52.082;5.108;2024-02-15T09:11:07;6.07;;;4.35;;
69912;SDS011;57198;52.082;5.108;2024-02-15T09:13:39;6.73;;;3.83;;
69912;SDS011;57198;52.082;5.108;2024-02-15T09:16:06;9.00;;;4.38;;
69912;SDS011;57198;52.082;5.108;2024-02-15T09:18:34;7.85;;;4.50;;
69912;SDS011;57198;52.082;5.108;2024-02-15T09:21:02;5.43;;;4.32;;
69912;SDS011;57198;52.082;5.108;2024-02-15T09:23:31;7.20;;;4.18;;
69912;SDS011;57198;52.082;5.108;2024-02-15T09:25:59;8.53;;;4.40;;
69912;SDS011;57198;52.082;5.108;2024-02-15T09:28:26;8.50;;;4.55;;
69912;SDS011;57198;52.082;5.108;2024-02-15T09:30:53;7.45;;;4.45;;
69912;SDS011;57198;52.082;5.108;2024-02-15T09:33:26;5.78;;;4.10;;
69912;SDS011;57198;52.082;5.108;2024-02-15T09:35:53;5.97;;;3.70;;
69912;SDS011;57198;52.082;5.108;2024-02-15T09:38:21;8.60;;;3.97;;
69912;SDS011;57198;52.082;5.108;2024-02-15T09:40:51;7.30;;;3.80;;
69912;SDS011;57198;52.082;5.108;2024-02-15T09:43:21;7.25;;;4.32;;
69912;SDS011;57198;52.082;5.108;2024-02-15T09:45:52;5.70;;;3.53;;
69912;SDS011;57198;52.082;5.108;2024-02-15T09:48:20;7.60;;;3.75;;
69912;SDS011;57198;52.082;5.108;2024-02-15T09:50:51;10.53;;;3.80;;
69912;SDS011;57198;52.082;5.108;2024-02-15T09:53:21;6.65;;;3.53;;
69912;SDS011;57198;52.082;5.108;2024-02-15T09:55:53;6.43;;;3.72;;
69912;SDS011;57198;52.082;5.108;2024-02-15T09:58:21;9.75;;;3.92;;
69912;SDS011;57198;52.082;5.108;2024-02-15T10:00:52;9.13;;;4.00;;
69912;SDS011;57198;52.082;5.108;2024-02-15T10:03:19;6.20;;;4.03;;
69912;SDS011;57198;52.082;5.108;2024-02-15T10:05:48;4.80;;;3.08;;
69912;SDS011;57198;52.082;5.108;2024-02-15T10:08:19;4.25;;;3.30;;
69912;SDS011;57198;52.082;5.108;2024-02-15T10:10:48;4.45;;;3.22;;
69912;SDS011;57198;52.082;5.108;2024-02-15T10:13:32;7.18;;;3.50;;
69912;SDS011;57198;52.082;5.108;2024-02-15T10:16:13;6.83;;;3.00;;
69912;SDS011;57198;52.082;5.108;2024-02-15T10:18:41;6.25;;;3.40;;
69912;SDS011;57198;52.082;5.108;2024-02-15T10:21:09;9.40;;;3.53;;
69912;SDS011;57198;52.082;5.108;2024-02-15T10:23:37;9.80;;;3.80;;
69912;SDS011;57198;52.082;5.108;2024-02-15T10:26:20;4.40;;;3.33;;
69912;SDS011;57198;52.082;5.108;2024-02-15T10:29:03;5.20;;;3.40;;
69912;SDS011;57198;52.082;5.108;2024-02-15T10:31:33;7.63;;;3.58;;
69912;SDS011;57198;52.082;5.108;2024-02-15T10:34:05;5.93;;;3.53;;
69912;SDS011;57198;52.082;5.108;2024-02-15T10:36:34;9.35;;;3.83;;
69912;SDS011;57198;52.082;5.108;2024-02-15T10:39:14;6.25;;;4.10;;
69912;SDS011;57198;52.082;5.108;2024-02-15T10:41:49;3.77;;;2.67;;
69912;SDS011;57198;52.082;5.108;2024-02-15T10:44:17;8.25;;;3.45;;
69912;SDS011;57198;52.082;5.108;2024-02-15T10:46:46;7.28;;;4.00;;
69912;SDS011;57198;52.082;5.108;2024-02-15T10:49:18;8.50;;;3.58;;
69912;SDS011;57198;52.082;5.108;2024-02-15T10:51:48;6.85;;;3.30;;
69912;SDS011;57198;52.082;5.108;2024-02-15T10:54:19;11.23;;;3.60;;
69912;SDS011;57198;52.082;5.108;2024-02-15T10:56:50;7.05;;;3.70;;
69912;SDS011;57198;52.082;5.108;2024-02-15T10:59:22;7.13;;;4.10;;
69912;SDS011;57198;52.082;5.108;2024-02-15T11:01:54;8.10;;;3.83;;
69912;SDS011;57198;52.082;5.108;2024-02-15T11:04:25;8.93;;;4.28;;
69912;SDS011;57198;52.082;5.108;2024-02-15T11:06:59;7.50;;;4.30;;
69912;SDS011;57198;52.082;5.108;2024-02-15T11:09:28;8.52;;;4.50;;
69912;SDS011;57198;52.082;5.108;2024-02-15T11:11:56;7.32;;;4.75;;
69912;SDS011;57198;52.082;5.108;2024-02-15T11:14:28;10.05;;;4.88;;
69912;SDS011;57198;52.082;5.108;2024-02-15T11:16:56;8.75;;;5.72;;
69912;SDS011;57198;52.082;5.108;2024-02-15T11:22:10;9.35;;;5.68;;
69912;SDS011;57198;52.082;5.108;2024-02-15T11:24:45;10.57;;;5.35;;
69912;SDS011;57198;52.082;5.108;2024-02-15T11:27:13;10.52;;;5.25;;
69912;SDS011;57198;52.082;5.108;2024-02-15T11:32:34;11.53;;;5.47;;
69912;SDS011;57198;52.082;5.108;2024-02-15T11:35:03;7.63;;;5.38;;
69912;SDS011;57198;52.082;5.108;2024-02-15T11:40:18;11.35;;;5.95;;
69912;SDS011;57198;52.082;5.108;2024-02-15T11:42:45;11.35;;;6.75;;
69912;SDS011;57198;52.082;5.108;2024-02-15T11:45:14;15.60;;;6.03;;
69912;SDS011;57198;52.082;5.108;2024-02-15T11:47:47;9.95;;;5.95;;
69912;SDS011;57198;52.082;5.108;2024-02-15T11:50:17;11.02;;;5.85;;
69912;SDS011;57198;52.082;5.108;2024-02-15T11:52:45;10.55;;;6.47;;
69912;SDS011;57198;52.082;5.108;2024-02-15T11:55:12;10.00;;;6.05;;
69912;SDS011;57198;52.082;5.108;2024-02-15T11:57:40;8.63;;;5.70;;
69912;SDS011;57198;52.082;5.108;2024-02-15T12:00:26;9.90;;;5.70;;
69912;SDS011;57198;52.082;5.108;2024-02-15T12:03:13;9.20;;;6.03;;
69912;SDS011;57198;52.082;5.108;2024-02-15T12:06:00;7.80;;;5.95;;
69912;SDS011;57198;52.082;5.108;2024-02-15T12:08:46;9.00;;;6.15;;
69912;SDS011;57198;52.082;5.108;2024-02-15T12:11:33;7.33;;;5.60;;
69912;SDS011;57198;52.082;5.108;2024-02-15T12:14:19;8.18;;;5.82;;
69912;SDS011;57198;52.082;5.108;2024-02-15T12:17:09;9.75;;;5.88;;
69912;SDS011;57198;52.082;5.108;2024-02-15T12:19:56;7.40;;;4.85;;
69912;SDS011;57198;52.082;5.108;2024-02-15T12:22:25;7.30;;;5.63;;
69912;SDS011;57198;52.082;5.108;2024-02-15T12:24:56;10.37;;;5.17;;
69912;SDS011;57198;52.082;5.108;2024-02-15T12:27:24;8.13;;;5.28;;
69912;SDS011;57198;52.082;5.108;2024-02-15T12:29:58;5.68;;;4.72;;
69912;SDS011;57198;52.082;5.108;2024-02-15T12:32:26;7.70;;;4.50;;
69912;SDS011;57198;52.082;5.108;2024-02-15T12:37:43;5.93;;;4.17;;
69912;SDS011;57198;52.082;5.108;2024-02-15T12:40:18;3.47;;;3.17;;
69912;SDS011;57198;52.082;5.108;2024-02-15T12:42:46;5.88;;;2.67;;
69912;SDS011;57198;52.082;5.108;2024-02-15T12:45:17;4.53;;;3.47;;
69912;SDS011;57198;52.082;5.108;2024-02-15T12:47:51;7.15;;;3.80;;
69912;SDS011;57198;52.082;5.108;2024-02-15T12:50:20;5.50;;;2.70;;
69912;SDS011;57198;52.082;5.108;2024-02-15T12:52:48;4.78;;;2.13;;
69912;SDS011;57198;52.082;5.108;2024-02-15T12:55:17;5.38;;;3.03;;
69912;SDS011;57198;52.082;5.108;2024-02-15T12:57:49;5.97;;;2.85;;
69912;SDS011;57198;52.082;5.108;2024-02-15T13:00:22;8.43;;;3.22;;
69912;SDS011;57198;52.082;5.108;2024-02-15T13:02:55;4.53;;;2.50;;
69912;SDS011;57198;52.082;5.108;2024-02-15T13:05:24;5.40;;;2.67;;
69912;SDS011;57198;52.082;5.108;2024-02-15T13:07:53;4.85;;;2.88;;
69912;SDS011;57198;52.082;5.108;2024-02-15T13:10:32;3.90;;;2.55;;
69912;SDS011;57198;52.082;5.108;2024-02-15T13:12:59;5.35;;;3.63;;
69912;SDS011;57198;52.082;5.108;2024-02-15T13:15:28;8.40;;;2.30;;
69912;SDS011;57198;52.082;5.108;2024-02-15T13:18:00;4.15;;;2.30;;
69912;SDS011;57198;52.082;5.108;2024-02-15T13:20:32;5.22;;;2.53;;
69912;SDS011;57198;52.082;5.108;2024-02-15T13:23:04;4.68;;;2.38;;
69912;SDS011;57198;52.082;5.108;2024-02-15T13:25:36;5.50;;;2.60;;
69912;SDS011;57198;52.082;5.108;2024-02-15T13:28:07;5.93;;;2.20;;
69912;SDS011;57198;52.082;5.108;2024-02-15T13:30:36;4.28;;;2.33;;
69912;SDS011;57198;52.082;5.108;2024-02-15T13:33:04;7.25;;;2.58;;
69912;SDS011;57198;52.082;5.108;2024-02-15T13:35:32;4.85;;;2.05;;
69912;SDS011;57198;52.082;5.108;2024-02-15T13:38:00;3.22;;;1.80;;
69912;SDS011;57198;52.082;5.108;2024-02-15T13:40:29;5.33;;;2.67;;
69912;SDS011;57198;52.082;5.108;2024-02-15T13:43:00;4.30;;;2.10;;
69912;SDS011;57198;52.082;5.108;2024-02-15T13:45:32;4.57;;;2.10;;
69912;SDS011;57198;52.082;5.108;2024-02-15T13:48:00;4.80;;;2.10;;
69912;SDS011;57198;52.082;5.108;2024-02-15T13:50:28;4.78;;;2.10;;
69912;SDS011;57198;52.082;5.108;2024-02-15T13:52:59;4.27;;;2.27;;
69912;SDS011;57198;52.082;5.108;2024-02-15T13:55:28;6.60;;;2.20;;
69912;SDS011;57198;52.082;5.108;2024-02-15T13:57:56;4.05;;;2.25;;
69912;SDS011;57198;52.082;5.108;2024-02-15T14:00:23;4.72;;;2.00;;
69912;SDS011;57198;52.082;5.108;2024-02-15T14:02:57;4.65;;;2.08;;
69912;SDS011;57198;52.082;5.108;2024-02-15T14:05:25;5.30;;;1.77;;
69912;SDS011;57198;52.082;5.108;2024-02-15T14:07:56;3.92;;;2.08;;
69912;SDS011;57198;52.082;5.108;2024-02-15T14:10:24;6.40;;;2.10;;
69912;SDS011;57198;52.082;5.108;2024-02-15T14:12:53;3.72;;;2.20;;
69912;SDS011;57198;52.082;5.108;2024-02-15T14:15:30;4.53;;;1.45;;
69912;SDS011;57198;52.082;5.108;2024-02-15T14:18:00;4.07;;;1.80;;
69912;SDS011;57198;52.082;5.108;2024-02-15T14:20:28;4.05;;;2.20;;
69912;SDS011;57198;52.082;5.108;2024-02-15T14:22:55;2.75;;;1.60;;
69912;SDS011;57198;52.082;5.108;2024-02-15T14:25:23;6.65;;;2.40;;
69912;SDS011;57198;52.082;5.108;2024-02-15T14:27:55;4.13;;;2.10;;
69912;SDS011;57198;52.082;5.108;2024-02-15T14:30:24;5.93;;;2.27;;
69912;SDS011;57198;52.082;5.108;2024-02-15T14:33:10;4.70;;;1.80;;
69912;SDS011;57198;52.082;5.108;2024-02-15T14:35:48;3.97;;;1.80;;
69912;SDS011;57198;52.082;5.108;2024-02-15T14:38:16;6.15;;;1.83;;
69912;SDS011;57198;52.082;5.108;2024-02-15T14:40:47;4.38;;;2.20;;
69912;SDS011;57198;52.082;5.108;2024-02-15T14:43:24;5.07;;;2.20;;
69912;SDS011;57198;52.082;5.108;2024-02-15T14:45:55;6.22;;;2.00;;
69912;SDS011;57198;52.082;5.108;2024-02-15T14:48:24;5.50;;;2.10;;
69912;SDS011;57198;52.082;5.108;2024-02-15T14:50:52;5.93;;;1.90;;
69912;SDS011;57198;52.082;5.108;2024-02-15T14:53:22;5.40;;;2.60;;
69912;SDS011;57198;52.082;5.108;2024-02-15T14:55:50;5.40;;;2.40;;
69912;SDS011;57198;52.082;5.108;2024-02-15T14:58:19;5.53;;;2.40;;
69912;SDS011;57198;52.082;5.108;2024-02-15T15:00:47;2.97;;;2.47;;
69912;SDS011;57198;52.082;5.108;2024-02-15T15:03:15;6.10;;;2.00;;
69912;SDS011;57198;52.082;5.108;2024-02-15T15:05:44;4.53;;;2.40;;